Skip Navigation LinksHome page > Weather > Current weather Skip Navigation Links

Current Weather

Dorval Intl. Apt., Montréal, P.Q.

For information only: do not use for flight planning or navigation.
Latest weather
Observation time Sunday, September 20, 2020 11:00 AM EDT
Local time Sunday, September 20, 2020 11:16 AM EDT
Flight conditions Visual Meteorological Conditions
Winds
Wind direction East-Northeast (60°)
Winds variable from 360° to 90°
Wind speed 7 mph
Visibility 30 mi.
Sky condition
Ceiling unlimited
Cloud layer few clouds 3,500 ft.
Temperature 52°F
Dewpoint 36°F
Altimeter 30.61 in.Hg
Derived measurements
Relative humidity 54%
Density altitude -1036 ft.
Sea-level pressure 30.62 in.Hg
METAR CYUL 201500Z 06006KT 360V090 30SM FEW035 11/02 A3061 RMK CF1 SLP369

Settings

Location code

InnerDrive.Weather 4.0.6770.0 Release CLR 4.0.30319.42000
Copyright ©2018 Inner Drive Technology. All rights reserved. Portions Copyright ©1986-2018 David Braverman.

Find weather

Site navigation


Skip Navigation Links

Place info

Page info

PayPal - The safer, easier way to pay online!

Return home.

Copyright ©2020 Inner Drive Technology. Purveyors of fine, hand-crafted computer software. Page printed 2020-09-20T15:16:49 UTC.